createdAt,value
2023-02-13T00:00:56.796Z,90.41
2023-02-13T00:01:56.461Z,90.41
2023-02-13T00:02:56.465Z,90.30
2023-02-13T00:03:56.515Z,90.30
2023-02-13T00:04:56.429Z,90.41
2023-02-13T00:05:56.433Z,90.55
2023-02-13T00:06:56.397Z,90.72
2023-02-13T00:07:57.337Z,90.51
2023-02-13T00:08:56.373Z,90.30
2023-02-13T00:09:56.360Z,90.09
2023-02-13T00:10:56.739Z,90.20
2023-02-13T00:11:56.330Z,90.09
2023-02-13T00:12:56.384Z,90.30
2023-02-13T00:13:56.306Z,90.30
2023-02-13T00:14:56.293Z,90.00
2023-02-13T00:15:56.321Z,90.20
2023-02-13T00:16:56.267Z,90.66
2023-02-13T00:17:56.256Z,90.55
2023-02-13T00:18:56.251Z,90.34
2023-02-13T00:19:56.230Z,90.34
2023-02-13T00:20:56.541Z,90.66
2023-02-13T00:21:56.208Z,90.66
2023-02-13T00:22:56.188Z,90.66
2023-02-13T00:23:56.178Z,90.66
2023-02-13T00:24:56.164Z,90.66
2023-02-13T00:25:56.156Z,90.66
2023-02-13T00:26:56.152Z,90.75
2023-02-13T00:27:56.127Z,90.86
2023-02-13T00:28:56.135Z,90.96
2023-02-13T00:29:56.097Z,90.96
2023-02-13T00:30:56.598Z,90.75
2023-02-13T00:31:56.191Z,90.75
2023-02-13T00:32:56.052Z,90.75
2023-02-13T00:33:56.037Z,90.86
2023-02-13T00:34:56.027Z,90.86
2023-02-13T00:35:56.018Z,90.90
2023-02-13T00:36:56.013Z,90.90
2023-02-13T00:37:55.990Z,90.86
2023-02-13T00:38:55.970Z,90.86
2023-02-13T00:39:55.957Z,90.96
2023-02-13T00:40:56.270Z,91.00
2023-02-13T00:41:55.943Z,90.90
2023-02-13T00:42:55.917Z,91.00
2023-02-13T00:43:55.906Z,90.90
2023-02-13T00:44:55.916Z,90.96
2023-02-13T00:45:55.881Z,91.00
2023-02-13T00:46:55.882Z,90.90
2023-02-13T00:47:55.870Z,90.96
2023-02-13T00:48:55.836Z,90.75
2023-02-13T00:49:55.829Z,90.75
2023-02-13T00:50:56.240Z,90.66
2023-02-13T00:51:55.817Z,90.80
2023-02-13T00:52:55.783Z,90.66
2023-02-13T00:53:55.773Z,90.66
2023-02-13T00:54:55.756Z,90.55
2023-02-13T00:55:55.743Z,90.45
2023-02-13T00:56:55.745Z,90.24
2023-02-13T00:57:55.748Z,90.14
2023-02-13T00:58:55.704Z,90.14
2023-02-13T00:59:55.703Z,90.14
2023-02-13T01:00:56.229Z,90.49
2023-02-13T01:01:55.760Z,90.28
2023-02-13T01:02:55.668Z,90.28
2023-02-13T01:03:55.703Z,90.49
2023-02-13T01:04:55.633Z,90.59
2023-02-13T01:05:55.618Z,90.59
2023-02-13T01:06:55.632Z,90.69
2023-02-13T01:07:55.596Z,90.94
2023-02-13T01:08:55.575Z,91.36
2023-02-13T01:09:55.592Z,91.87
2023-02-13T01:10:56.032Z,92.22
2023-02-13T01:11:55.552Z,91.87
2023-02-13T01:12:55.532Z,92.02
2023-02-13T01:13:55.516Z,91.71
2023-02-13T01:14:55.502Z,92.12
2023-02-13T01:15:55.663Z,93.09
2023-02-13T01:16:55.539Z,93.60
2023-02-13T01:17:55.465Z,93.60
2023-02-13T01:18:55.450Z,93.40
2023-02-13T01:19:55.438Z,93.65
2023-02-13T01:20:55.842Z,93.54
2023-02-13T01:21:55.429Z,93.65
2023-02-13T01:22:55.405Z,94.68
2023-02-13T01:23:55.387Z,94.99
2023-02-13T01:24:55.367Z,94.37
2023-02-13T01:25:55.358Z,94.06
2023-02-13T01:26:55.361Z,94.27
2023-02-13T01:27:55.334Z,94.93
2023-02-13T01:28:55.333Z,95.49
2023-02-13T01:29:55.309Z,95.49
2023-02-13T01:30:55.590Z,95.18
2023-02-13T01:31:55.428Z,95.07
2023-02-13T01:32:55.290Z,94.62
2023-02-13T01:33:55.256Z,95.18
2023-02-13T01:34:55.246Z,95.39
2023-02-13T01:35:55.242Z,95.49
2023-02-13T01:36:55.218Z,96.31
2023-02-13T01:37:55.215Z,96.67
2023-02-13T01:38:55.200Z,96.47
2023-02-13T01:39:55.174Z,96.56
2023-02-13T01:40:55.710Z,97.60
2023-02-13T01:41:55.143Z,98.11
2023-02-13T01:42:55.147Z,98.22
2023-02-13T01:43:55.123Z,98.27
2023-02-13T01:44:55.104Z,98.16
2023-02-13T01:45:55.099Z,97.91
2023-02-13T01:46:55.229Z,98.16
2023-02-13T01:47:55.081Z,97.64
2023-02-13T01:48:55.088Z,97.79
2023-02-13T01:49:55.047Z,97.44
2023-02-13T01:50:55.257Z,97.38
2023-02-13T01:51:55.017Z,98.21
2023-02-13T01:52:55.014Z,98.52
2023-02-13T01:53:54.984Z,98.10
2023-02-13T01:54:54.978Z,97.69
2023-02-13T01:55:54.971Z,97.38
2023-02-13T01:56:54.950Z,97.07
2023-02-13T01:57:54.958Z,96.59
2023-02-13T01:58:54.917Z,97.74
2023-02-13T01:59:54.912Z,98.56
2023-02-13T02:00:55.268Z,99.33
2023-02-13T02:01:55.134Z,98.92
2023-02-13T02:02:54.891Z,98.61
2023-02-13T02:03:54.867Z,98.35
2023-02-13T02:04:54.860Z,98.40
2023-02-13T02:05:54.825Z,98.19
2023-02-13T02:06:54.813Z,98.03
2023-02-13T02:07:54.812Z,99.17
2023-02-13T02:08:54.788Z,99.79
2023-02-13T02:09:54.772Z,99.99
2023-02-13T02:10:55.112Z,99.99
2023-02-13T02:11:54.742Z,99.99
2023-02-13T02:12:54.748Z,99.99
2023-02-13T02:13:54.716Z,99.69
2023-02-13T02:14:54.712Z,99.17
2023-02-13T02:15:54.758Z,98.75
2023-02-13T02:16:54.684Z,98.70
2023-02-13T02:17:54.681Z,98.91
2023-02-13T02:18:54.656Z,99.84
2023-02-13T02:19:54.647Z,99.84
2023-02-13T02:20:54.706Z,99.63
2023-02-13T02:21:54.622Z,99.78
2023-02-13T02:22:54.621Z,99.99
2023-02-13T02:23:54.600Z,99.99
2023-02-13T02:24:54.579Z,99.88
2023-02-13T02:25:54.559Z,99.78
2023-02-13T02:26:54.551Z,99.68
2023-02-13T02:27:54.548Z,99.47
2023-02-13T02:28:54.534Z,99.31
2023-02-13T02:29:54.509Z,99.10
2023-02-13T02:30:54.647Z,99.62
2023-02-13T02:31:54.649Z,99.99
2023-02-13T02:32:54.492Z,99.99
2023-02-13T02:33:54.468Z,99.99
2023-02-13T02:34:54.451Z,99.99
2023-02-13T02:35:54.432Z,99.99
2023-02-13T02:36:54.463Z,99.99
2023-02-13T02:37:54.442Z,99.99
2023-02-13T02:38:54.397Z,99.99
2023-02-13T02:39:54.394Z,99.99
2023-02-13T02:40:54.744Z,99.99
2023-02-13T02:41:54.359Z,99.99
2023-02-13T02:42:54.346Z,99.99
2023-02-13T02:43:54.349Z,99.99
2023-02-13T02:44:54.340Z,99.99
2023-02-13T02:45:54.316Z,99.99
2023-02-13T02:46:54.423Z,99.99
2023-02-13T02:47:54.280Z,99.99
2023-02-13T02:48:54.314Z,99.99
2023-02-13T02:49:54.285Z,99.99
2023-02-13T02:50:54.669Z,99.99
2023-02-13T02:51:54.252Z,99.99
2023-02-13T02:52:54.244Z,99.99
2023-02-13T02:53:54.234Z,99.99
2023-02-13T02:54:54.192Z,99.99
2023-02-13T02:55:54.186Z,99.99
2023-02-13T02:56:54.166Z,99.99
2023-02-13T02:57:54.149Z,99.99
2023-02-13T02:58:54.155Z,99.99
2023-02-13T02:59:54.123Z,99.99
2023-02-13T03:00:54.182Z,99.99
2023-02-13T03:01:54.099Z,99.99
2023-02-13T03:02:54.107Z,99.99
2023-02-13T03:03:54.128Z,99.99
2023-02-13T03:04:54.063Z,99.99
2023-02-13T03:05:54.048Z,99.99
2023-02-13T03:06:54.034Z,99.99
2023-02-13T03:07:54.023Z,99.99
2023-02-13T03:08:54.049Z,99.99
2023-02-13T03:09:54.001Z,99.99
2023-02-13T03:10:53.987Z,99.99
2023-02-13T03:11:53.971Z,99.99
2023-02-13T03:12:53.963Z,99.99
2023-02-13T03:13:53.958Z,99.99
2023-02-13T03:14:53.937Z,99.99
2023-02-13T03:15:53.921Z,99.99
2023-02-13T03:16:53.907Z,99.99
2023-02-13T03:17:53.901Z,99.99
2023-02-13T03:18:53.896Z,99.99
2023-02-13T03:19:53.879Z,99.99
2023-02-13T03:20:53.863Z,99.99
2023-02-13T03:21:53.865Z,99.99
2023-02-13T03:22:53.839Z,99.99
2023-02-13T03:23:53.831Z,99.99
2023-02-13T03:24:53.839Z,99.99
2023-02-13T03:25:53.796Z,99.99
2023-02-13T03:26:53.782Z,99.99
2023-02-13T03:27:53.770Z,99.99
2023-02-13T03:28:53.775Z,99.99
2023-02-13T03:29:53.739Z,99.99
2023-02-13T03:30:53.776Z,99.99
2023-02-13T03:31:53.743Z,99.99
2023-02-13T03:32:53.706Z,99.99
2023-02-13T03:33:53.705Z,99.99
2023-02-13T03:34:53.678Z,99.99
2023-02-13T03:35:53.665Z,99.99
2023-02-13T03:36:53.667Z,99.99
2023-02-13T03:37:53.639Z,99.99
2023-02-13T03:38:53.639Z,99.99
2023-02-13T03:39:53.611Z,99.99
2023-02-13T03:40:53.625Z,99.99
2023-02-13T03:41:53.594Z,99.99
2023-02-13T03:42:53.580Z,99.99
2023-02-13T03:43:53.581Z,99.99
2023-02-13T03:44:53.554Z,99.99
2023-02-13T03:45:53.651Z,99.99
2023-02-13T03:46:53.537Z,99.99
2023-02-13T03:47:53.514Z,99.99
2023-02-13T03:48:53.575Z,99.99
2023-02-13T03:49:53.501Z,99.99
2023-02-13T03:50:53.475Z,99.99
2023-02-13T03:51:53.467Z,99.99
2023-02-13T03:52:53.453Z,99.99
2023-02-13T03:53:53.462Z,99.99
2023-02-13T03:54:53.425Z,99.99
2023-02-13T03:55:53.410Z,99.99
2023-02-13T03:56:53.455Z,99.99
2023-02-13T03:57:53.385Z,99.99
2023-02-13T03:58:53.415Z,99.99
2023-02-13T03:59:53.364Z,99.99
2023-02-13T04:00:53.372Z,99.99
2023-02-13T04:01:53.355Z,99.99
2023-02-13T04:02:53.324Z,99.99
2023-02-13T04:03:53.306Z,99.99
2023-02-13T04:04:53.313Z,99.99
2023-02-13T04:05:53.287Z,99.99
2023-02-13T04:06:53.268Z,99.99
2023-02-13T04:07:53.255Z,99.99
2023-02-13T04:08:53.247Z,99.99
2023-02-13T04:09:53.240Z,99.99
2023-02-13T04:10:53.215Z,99.99
2023-02-13T04:11:53.210Z,99.99
2023-02-13T04:12:53.211Z,99.99
2023-02-13T04:13:53.177Z,99.99
2023-02-13T04:14:53.179Z,99.99
2023-02-13T04:15:53.150Z,99.99
2023-02-13T04:16:53.178Z,99.99
2023-02-13T04:17:53.133Z,99.99
2023-02-13T04:18:53.110Z,99.99
2023-02-13T04:19:53.115Z,99.99
2023-02-13T04:20:53.090Z,99.99
2023-02-13T04:21:53.073Z,99.99
2023-02-13T04:22:53.059Z,99.99
2023-02-13T04:23:53.047Z,99.99
2023-02-13T04:24:53.052Z,99.99
2023-02-13T04:25:53.018Z,99.99
2023-02-13T04:26:53.013Z,99.99
2023-02-13T04:27:52.993Z,99.99
2023-02-13T04:28:53.007Z,99.99
2023-02-13T04:29:53.000Z,99.99
2023-02-13T04:30:53.082Z,99.99
2023-02-13T04:31:53.075Z,99.99
2023-02-13T04:32:52.994Z,99.99
2023-02-13T04:33:52.929Z,99.99
2023-02-13T04:34:52.968Z,99.99
2023-02-13T04:35:52.893Z,99.99
2023-02-13T04:36:52.897Z,99.99
2023-02-13T04:37:52.863Z,99.99
2023-02-13T04:38:52.868Z,99.99
2023-02-13T04:39:52.861Z,99.99
2023-02-13T04:40:52.838Z,99.99
2023-02-13T04:41:52.816Z,99.99
2023-02-13T04:42:52.804Z,99.99
2023-02-13T04:43:52.793Z,99.99
2023-02-13T04:44:52.823Z,99.99
2023-02-13T04:45:52.791Z,99.99
2023-02-13T04:46:52.767Z,99.99
2023-02-13T04:47:52.739Z,99.99
2023-02-13T04:48:52.732Z,99.99
2023-02-13T04:49:52.723Z,99.99
2023-02-13T04:50:52.701Z,99.99
2023-02-13T04:51:52.685Z,99.99
2023-02-13T04:52:52.682Z,99.99
2023-02-13T04:53:52.660Z,99.99
2023-02-13T04:54:52.669Z,99.99
2023-02-13T04:55:52.634Z,99.99
2023-02-13T04:56:52.624Z,99.99
2023-02-13T04:57:52.607Z,99.99
2023-02-13T04:58:52.599Z,99.99
2023-02-13T04:59:52.578Z,99.99
2023-02-13T05:00:52.611Z,99.99
2023-02-13T05:01:52.559Z,99.99
2023-02-13T05:02:52.553Z,99.99
2023-02-13T05:03:52.531Z,99.99
2023-02-13T05:04:52.521Z,99.99
2023-02-13T05:05:52.523Z,99.99
2023-02-13T05:06:52.527Z,99.99
2023-02-13T05:07:52.482Z,99.99
2023-02-13T05:08:52.466Z,99.99
2023-02-13T05:09:52.450Z,99.99
2023-02-13T05:10:52.459Z,99.99
2023-02-13T05:11:52.428Z,99.99
2023-02-13T05:12:52.412Z,99.99
2023-02-13T05:13:52.400Z,99.99
2023-02-13T05:14:52.386Z,99.99
2023-02-13T05:15:52.451Z,99.99
2023-02-13T05:16:52.766Z,99.99
2023-02-13T05:17:52.352Z,99.99
2023-02-13T05:18:52.336Z,99.99
2023-02-13T05:19:52.324Z,99.99
2023-02-13T05:20:52.324Z,99.99
2023-02-13T05:21:52.298Z,99.99
2023-02-13T05:22:52.292Z,99.99
2023-02-13T05:23:52.273Z,99.99
2023-02-13T05:24:52.259Z,99.99
2023-02-13T05:25:52.256Z,99.99
2023-02-13T05:26:52.236Z,99.99
2023-02-13T05:27:52.217Z,99.99
2023-02-13T05:28:52.217Z,99.99
2023-02-13T05:29:52.195Z,99.99
2023-02-13T05:30:52.318Z,99.99
2023-02-13T05:31:52.352Z,99.99
2023-02-13T05:32:52.176Z,99.99
2023-02-13T05:33:52.141Z,99.99
2023-02-13T05:34:52.137Z,99.99
2023-02-13T05:35:52.135Z,99.99
2023-02-13T05:36:52.111Z,99.99
2023-02-13T05:37:52.090Z,99.99
2023-02-13T05:38:52.114Z,99.99
2023-02-13T05:39:52.066Z,99.99
2023-02-13T05:40:52.074Z,99.99
2023-02-13T05:41:52.039Z,99.99
2023-02-13T05:42:52.026Z,99.99
2023-02-13T05:43:52.025Z,99.99
2023-02-13T05:44:52.012Z,99.99
2023-02-13T05:45:52.008Z,99.99
2023-02-13T05:46:51.981Z,99.99
2023-02-13T05:47:51.962Z,99.99
2023-02-13T05:48:51.979Z,99.99
2023-02-13T05:49:51.941Z,99.99
2023-02-13T05:50:51.941Z,99.99
2023-02-13T05:51:51.922Z,99.99
2023-02-13T05:52:51.904Z,99.99
2023-02-13T05:53:51.886Z,99.99
2023-02-13T05:54:51.874Z,99.99
2023-02-13T05:55:51.873Z,99.99
2023-02-13T05:56:51.848Z,99.99
2023-02-13T05:57:51.830Z,99.99
2023-02-13T05:58:51.817Z,99.99
2023-02-13T05:59:51.809Z,99.99
2023-02-13T06:00:51.806Z,99.99
2023-02-13T06:01:51.787Z,99.99
2023-02-13T06:02:51.868Z,99.99
2023-02-13T06:03:51.818Z,99.99
2023-02-13T06:04:51.768Z,99.99
2023-02-13T06:05:51.753Z,99.99
2023-02-13T06:06:51.718Z,99.99
2023-02-13T06:07:51.710Z,99.99
2023-02-13T06:08:51.686Z,99.99
2023-02-13T06:09:51.676Z,99.99
2023-02-13T06:10:51.710Z,99.99
2023-02-13T06:11:51.663Z,99.99
2023-02-13T06:12:51.653Z,99.99
2023-02-13T06:13:51.629Z,99.99
2023-02-13T06:14:51.616Z,99.99
2023-02-13T06:15:51.708Z,99.99
2023-02-13T06:16:51.602Z,99.99
2023-02-13T06:17:51.571Z,99.99
2023-02-13T06:18:51.555Z,99.99
2023-02-13T06:19:51.553Z,99.99
2023-02-13T06:20:51.556Z,99.99
2023-02-13T06:21:51.536Z,99.99
2023-02-13T06:22:51.510Z,99.99
2023-02-13T06:23:51.497Z,99.99
2023-02-13T06:24:51.482Z,99.99
2023-02-13T06:25:51.474Z,99.99
2023-02-13T06:26:51.471Z,99.99
2023-02-13T06:27:51.443Z,99.99
2023-02-13T06:28:51.435Z,99.99
2023-02-13T06:29:51.418Z,99.99
2023-02-13T06:30:51.645Z,99.99
2023-02-13T06:31:51.443Z,99.99
2023-02-13T06:32:51.390Z,99.99
2023-02-13T06:33:51.372Z,99.99
2023-02-13T06:34:51.356Z,99.99
2023-02-13T06:35:51.343Z,99.99
2023-02-13T06:36:51.374Z,99.99
2023-02-13T06:37:51.320Z,99.99
2023-02-13T06:38:51.299Z,99.99
2023-02-13T06:39:51.288Z,99.99
2023-02-13T06:40:51.280Z,99.99
2023-02-13T06:41:51.284Z,99.99
2023-02-13T06:42:51.251Z,99.99
2023-02-13T06:43:51.247Z,99.99
2023-02-13T06:44:51.230Z,99.99
2023-02-13T06:45:51.222Z,99.99
2023-02-13T06:46:51.308Z,99.99
2023-02-13T06:47:51.193Z,99.99
2023-02-13T06:48:51.176Z,99.99
2023-02-13T06:49:51.165Z,99.99
2023-02-13T06:50:51.154Z,99.99
2023-02-13T06:51:51.155Z,99.99
2023-02-13T06:52:51.154Z,99.99
2023-02-13T06:53:51.114Z,99.99
2023-02-13T06:54:51.102Z,99.99
2023-02-13T06:55:51.088Z,99.99
2023-02-13T06:56:51.093Z,99.99
2023-02-13T06:57:51.060Z,99.99
2023-02-13T06:58:51.045Z,99.99
2023-02-13T06:59:51.032Z,99.99
2023-02-13T07:00:51.121Z,99.99
2023-02-13T07:01:51.029Z,99.99
2023-02-13T07:02:51.015Z,99.99
2023-02-13T07:03:50.984Z,99.99
2023-02-13T07:04:50.969Z,99.99
2023-02-13T07:05:50.957Z,99.99
2023-02-13T07:06:50.961Z,99.99
2023-02-13T07:07:50.934Z,99.99
2023-02-13T07:08:50.943Z,99.99
2023-02-13T07:09:50.908Z,99.99
2023-02-13T07:10:50.890Z,99.99
2023-02-13T07:11:52.095Z,99.99
2023-02-13T07:13:03.665Z,99.99
2023-02-13T07:13:50.861Z,99.99
2023-02-13T07:14:50.846Z,99.99
2023-02-13T07:15:50.908Z,99.99
2023-02-13T07:16:50.813Z,99.99
2023-02-13T07:17:50.819Z,99.99
2023-02-13T07:18:50.789Z,99.99
2023-02-13T07:19:50.776Z,99.99
2023-02-13T07:20:50.763Z,99.99
2023-02-13T07:21:50.751Z,99.99
2023-02-13T07:22:50.756Z,99.99
2023-02-13T07:23:50.759Z,99.99
2023-02-13T07:24:50.734Z,99.99
2023-02-13T07:25:50.699Z,99.99
2023-02-13T07:26:50.681Z,99.99
2023-02-13T07:27:50.704Z,99.99
2023-02-13T07:28:56.974Z,99.99
2023-02-13T07:29:50.652Z,99.99
2023-02-13T07:30:50.701Z,99.99
2023-02-13T07:31:50.668Z,99.99
2023-02-13T07:32:50.625Z,99.99
2023-02-13T07:33:50.595Z,99.99
2023-02-13T07:35:01.224Z,99.99
2023-02-13T07:35:51.576Z,99.99
2023-02-13T07:36:50.562Z,99.99
2023-02-13T07:37:50.561Z,99.99
2023-02-13T07:38:50.537Z,99.99
2023-02-13T07:39:50.525Z,99.99
2023-02-13T07:40:50.544Z,99.99
2023-02-13T07:41:50.498Z,99.99
2023-02-13T07:42:50.513Z,99.99
2023-02-13T07:43:50.481Z,99.99
2023-02-13T07:44:50.471Z,99.99
2023-02-13T07:45:50.447Z,99.99
2023-02-13T07:46:50.521Z,99.99
2023-02-13T07:47:50.437Z,99.99
2023-02-13T07:48:50.409Z,99.99
2023-02-13T07:49:50.397Z,99.99
2023-02-13T07:50:50.387Z,99.99
2023-02-13T07:51:50.366Z,99.99
2023-02-13T07:52:50.372Z,99.99
2023-02-13T07:53:50.347Z,99.99
2023-02-13T07:54:50.336Z,99.99
2023-02-13T07:55:50.320Z,99.99
2023-02-13T07:56:50.334Z,99.99
2023-02-13T07:57:50.310Z,99.99
2023-02-13T07:58:50.279Z,99.99
2023-02-13T07:59:50.282Z,99.99
2023-02-13T08:00:50.274Z,99.99
2023-02-13T08:01:50.301Z,99.99
2023-02-13T08:02:50.258Z,99.99
2023-02-13T08:03:50.306Z,99.99
2023-02-13T08:04:50.200Z,99.99
2023-02-13T08:05:50.196Z,99.99
2023-02-13T08:06:50.176Z,99.99
2023-02-13T08:07:50.183Z,99.99
2023-02-13T08:08:50.154Z,99.99
2023-02-13T08:09:50.141Z,99.99
2023-02-13T08:10:50.121Z,99.99
2023-02-13T08:11:50.119Z,99.40
2023-02-13T08:12:50.140Z,99.40
2023-02-13T08:13:50.094Z,99.40
2023-02-13T08:14:50.071Z,99.09
2023-02-13T08:15:50.055Z,98.73
2023-02-13T08:16:50.100Z,97.41
2023-02-13T08:17:50.044Z,94.54
2023-02-13T08:18:50.015Z,89.77
2023-02-13T08:19:50.011Z,87.63
2023-02-13T08:20:49.991Z,85.07
2023-02-13T08:21:49.982Z,83.80
2023-02-13T08:22:49.983Z,82.96
2023-02-13T08:23:49.956Z,81.11
2023-02-13T08:24:49.960Z,80.14
2023-02-13T08:25:49.935Z,76.99
2023-02-13T08:26:49.910Z,75.28
2023-02-13T08:27:49.914Z,75.31
2023-02-13T08:28:49.904Z,75.18
2023-02-13T08:29:49.876Z,74.19
2023-02-13T08:30:49.873Z,72.79
2023-02-13T08:31:49.918Z,71.77
2023-02-13T08:32:54.320Z,70.88
2023-02-13T08:33:49.817Z,71.70
2023-02-13T08:34:49.808Z,72.62
2023-02-13T08:35:49.785Z,71.83
2023-02-13T08:36:49.773Z,70.00
2023-02-13T08:37:49.758Z,68.13
2023-02-13T08:38:49.772Z,67.93
2023-02-13T08:39:49.737Z,68.44
2023-02-13T08:40:49.716Z,68.61
2023-02-13T08:41:49.709Z,67.05
2023-02-13T08:42:49.692Z,66.30
2023-02-13T08:43:49.696Z,65.69
2023-02-13T08:44:49.704Z,65.92
2023-02-13T08:45:49.803Z,66.54
2023-02-13T08:46:49.636Z,66.74
2023-02-13T08:47:49.628Z,66.64
2023-02-13T08:48:49.634Z,66.44
2023-02-13T08:49:49.599Z,66.64
2023-02-13T08:50:49.590Z,67.08
2023-02-13T08:51:49.582Z,67.05
2023-02-13T08:52:49.560Z,66.04
2023-02-13T08:53:49.560Z,65.30
2023-02-13T08:54:49.537Z,64.99
2023-02-13T08:55:49.524Z,64.89
2023-02-13T08:56:49.507Z,65.09
2023-02-13T08:57:49.493Z,64.32
2023-02-13T08:58:49.500Z,63.60
2023-02-13T08:59:49.472Z,63.40
2023-02-13T09:00:49.516Z,64.01
2023-02-13T09:01:49.448Z,64.25
2023-02-13T09:02:49.484Z,64.55
2023-02-13T09:03:49.429Z,64.01
2023-02-13T09:04:49.398Z,63.28
2023-02-13T09:05:49.390Z,62.94
2023-02-13T09:06:49.374Z,62.17
2023-02-13T09:07:49.360Z,61.53
2023-02-13T09:08:49.370Z,61.02
2023-02-13T09:09:49.343Z,60.62
2023-02-13T09:10:49.321Z,60.82
2023-02-13T09:11:49.309Z,61.10
2023-02-13T09:12:49.309Z,60.16
2023-02-13T09:13:49.303Z,60.16
2023-02-13T09:14:49.270Z,60.69
2023-02-13T09:15:49.262Z,60.79
2023-02-13T09:16:49.339Z,61.53
2023-02-13T09:17:49.234Z,62.27
2023-02-13T09:18:49.245Z,61.43
2023-02-13T09:19:49.204Z,61.05
2023-02-13T09:20:49.192Z,61.46
2023-02-13T09:21:49.182Z,62.07
2023-02-13T09:22:49.168Z,61.63
2023-02-13T09:23:49.172Z,60.79
2023-02-13T09:24:49.147Z,60.69
2023-02-13T09:25:49.149Z,60.23
2023-02-13T09:26:49.120Z,60.33
2023-02-13T09:27:49.105Z,60.28
2023-02-13T09:28:49.168Z,60.69
2023-02-13T09:29:49.078Z,60.97
2023-02-13T09:30:49.186Z,60.20
2023-02-13T09:31:49.253Z,59.83
2023-02-13T09:32:49.064Z,60.03
2023-02-13T09:33:49.048Z,59.83
2023-02-13T09:34:49.018Z,60.20
2023-02-13T09:35:49.014Z,59.56
2023-02-13T09:36:48.993Z,58.96
2023-02-13T09:37:48.998Z,58.69
2023-02-13T09:38:48.978Z,59.09
2023-02-13T09:39:48.950Z,59.49
2023-02-13T09:40:48.935Z,59.92
2023-02-13T09:41:48.929Z,59.70
2023-02-13T09:42:48.913Z,59.36
2023-02-13T09:43:48.915Z,59.19
2023-02-13T09:44:48.907Z,58.89
2023-02-13T09:45:49.002Z,58.43
2023-02-13T09:46:48.981Z,58.09
2023-02-13T09:47:48.853Z,57.69
2023-02-13T09:48:48.865Z,57.59
2023-02-13T09:49:48.846Z,57.46
2023-02-13T09:50:48.820Z,56.63
2023-02-13T09:51:48.802Z,56.17
2023-02-13T09:52:48.783Z,55.99
2023-02-13T09:53:48.778Z,55.79
2023-02-13T09:54:48.769Z,56.23
2023-02-13T09:55:48.756Z,56.65
2023-02-13T09:56:48.733Z,57.43
2023-02-13T09:57:48.718Z,56.77
2023-02-13T09:58:48.701Z,56.55
2023-02-13T09:59:48.703Z,56.24
2023-02-13T10:00:50.793Z,56.04
2023-02-13T10:01:48.721Z,55.82
2023-02-13T10:02:48.651Z,55.39
2023-02-13T10:03:48.642Z,55.79
2023-02-13T10:04:48.739Z,55.41
2023-02-13T10:05:48.652Z,55.56
2023-02-13T10:06:48.607Z,53.72
2023-02-13T10:07:48.589Z,53.88
2023-02-13T10:08:48.574Z,54.00
2023-02-13T10:09:48.584Z,55.85
2023-02-13T10:10:48.551Z,56.35
2023-02-13T10:11:48.542Z,56.63
2023-02-13T10:12:48.522Z,55.90
2023-02-13T10:13:48.511Z,55.14
2023-02-13T10:14:48.516Z,54.43
2023-02-13T10:15:48.567Z,53.98
2023-02-13T10:16:48.475Z,54.81
2023-02-13T10:17:48.464Z,54.91
2023-02-13T10:18:48.453Z,53.67
2023-02-13T10:19:48.453Z,53.42
2023-02-13T10:20:48.457Z,52.80
2023-02-13T10:21:48.418Z,52.59
2023-02-13T10:22:48.401Z,52.19
2023-02-13T10:23:48.395Z,52.47
2023-02-13T10:24:48.395Z,52.57
2023-02-13T10:25:48.369Z,51.66
2023-02-13T10:26:48.370Z,51.26
2023-02-13T10:27:48.353Z,50.81
2023-02-13T10:28:48.332Z,50.46
2023-02-13T10:29:48.337Z,51.24
2023-02-13T10:30:48.395Z,50.93
2023-02-13T10:31:48.455Z,50.26
2023-02-13T10:32:48.285Z,51.06
2023-02-13T10:33:48.268Z,51.97
2023-02-13T10:34:48.273Z,52.92
2023-02-13T10:35:48.241Z,53.60
2023-02-13T10:36:48.267Z,51.91
2023-02-13T10:37:48.217Z,50.15
2023-02-13T10:38:48.210Z,49.99
2023-02-13T10:39:48.206Z,52.54
2023-02-13T10:40:48.185Z,53.85
2023-02-13T10:41:48.167Z,55.01
2023-02-13T10:42:48.157Z,55.77
2023-02-13T10:43:48.147Z,55.47
2023-02-13T10:44:48.150Z,55.22
2023-02-13T10:45:48.120Z,55.44
2023-02-13T10:46:48.132Z,56.23
2023-02-13T10:47:48.089Z,54.91
2023-02-13T10:48:48.085Z,52.92
2023-02-13T10:49:48.117Z,51.51
2023-02-13T10:50:48.057Z,55.55
2023-02-13T10:51:48.049Z,57.53
2023-02-13T10:52:48.059Z,56.94
2023-02-13T10:53:48.026Z,56.92
2023-02-13T10:54:48.020Z,56.96
2023-02-13T10:55:48.010Z,55.32
2023-02-13T10:56:47.986Z,55.60
2023-02-13T10:57:47.966Z,56.41
2023-02-13T10:58:47.966Z,57.24
2023-02-13T10:59:47.944Z,59.41
2023-02-13T11:00:47.948Z,62.48
2023-02-13T11:01:47.993Z,63.49
2023-02-13T11:02:47.912Z,62.36
2023-02-13T11:03:47.890Z,61.23
2023-02-13T11:04:47.893Z,57.98
2023-02-13T11:05:47.877Z,58.16
2023-02-13T11:06:47.860Z,57.57
2023-02-13T11:07:47.843Z,55.49
2023-02-13T11:08:47.852Z,56.13
2023-02-13T11:09:47.830Z,55.87
2023-02-13T11:10:47.814Z,54.16
2023-02-13T11:11:47.788Z,51.81
2023-02-13T11:12:47.780Z,49.63
2023-02-13T11:13:47.770Z,49.25
2023-02-13T11:14:47.754Z,50.12
2023-02-13T11:15:47.780Z,54.58
2023-02-13T11:16:47.729Z,57.81
2023-02-13T11:17:47.724Z,59.30
2023-02-13T11:18:47.707Z,56.66
2023-02-13T11:19:47.687Z,56.82
2023-02-13T11:20:47.700Z,57.70
2023-02-13T11:21:47.665Z,56.02
2023-02-13T11:22:47.652Z,54.53
2023-02-13T11:23:47.637Z,54.96
2023-02-13T11:24:47.651Z,55.82
2023-02-13T11:25:47.632Z,56.23
2023-02-13T11:26:47.605Z,55.16
2023-02-13T11:27:47.589Z,53.30
2023-02-13T11:28:47.584Z,54.03
2023-02-13T11:29:47.583Z,53.60
2023-02-13T11:30:47.588Z,53.98
2023-02-13T11:31:47.705Z,55.57
2023-02-13T11:32:47.527Z,54.18
2023-02-13T11:33:47.526Z,54.66
2023-02-13T11:34:47.511Z,52.89
2023-02-13T11:35:47.514Z,52.54
2023-02-13T11:36:47.476Z,52.74
2023-02-13T11:37:47.483Z,55.44
2023-02-13T11:38:47.457Z,57.20
2023-02-13T11:39:49.011Z,58.16
2023-02-13T11:40:47.469Z,56.66
2023-02-13T11:41:47.426Z,54.66
2023-02-13T11:42:47.404Z,54.18
2023-02-13T11:43:47.395Z,56.76
2023-02-13T11:44:47.387Z,55.40
2023-02-13T11:45:47.383Z,53.63
2023-02-13T11:46:47.486Z,52.56
2023-02-13T11:47:47.343Z,52.14
2023-02-13T11:48:47.330Z,51.51
2023-02-13T11:49:47.310Z,50.96
2023-02-13T11:50:47.316Z,52.54
2023-02-13T11:51:47.290Z,54.16
2023-02-13T11:52:47.276Z,53.80
2023-02-13T11:53:47.260Z,52.37
2023-02-13T11:54:47.254Z,49.65
2023-02-13T11:55:47.254Z,48.70
2023-02-13T11:57:03.193Z,47.73
2023-02-13T11:57:48.219Z,47.58
2023-02-13T11:58:47.244Z,47.58
2023-02-13T11:59:47.192Z,50.18
2023-02-13T12:00:47.192Z,49.01
2023-02-13T12:01:47.165Z,48.35
2023-02-13T12:02:47.329Z,46.88
2023-02-13T12:03:47.208Z,45.50
2023-02-13T12:04:47.124Z,44.35
2023-02-13T12:05:47.114Z,44.68
2023-02-13T12:06:47.124Z,46.15
2023-02-13T12:07:47.088Z,47.85
2023-02-13T12:08:47.082Z,48.79
2023-02-13T12:09:47.068Z,48.99
2023-02-13T12:10:47.055Z,48.00
2023-02-13T12:11:47.085Z,47.52
2023-02-13T12:12:47.056Z,48.68
2023-02-13T12:13:47.022Z,46.23
2023-02-13T12:14:47.009Z,46.30
2023-02-13T12:15:46.997Z,45.68
2023-02-13T12:16:47.040Z,45.18
2023-02-13T12:17:46.978Z,47.45
2023-02-13T12:18:46.959Z,48.18
2023-02-13T12:19:46.945Z,46.65
2023-02-13T12:20:46.940Z,46.57
2023-02-13T12:21:46.943Z,47.47
2023-02-13T12:22:46.914Z,47.20
2023-02-13T12:23:46.896Z,45.06
2023-02-13T12:24:46.881Z,47.07
2023-02-13T12:25:46.880Z,47.11
2023-02-13T12:26:46.873Z,45.43
2023-02-13T12:27:46.842Z,44.27
2023-02-13T12:28:46.869Z,43.41
2023-02-13T12:29:46.827Z,43.09
2023-02-13T12:30:46.805Z,44.92
2023-02-13T12:31:46.908Z,48.90
2023-02-13T12:32:46.789Z,49.27
2023-02-13T12:33:46.772Z,48.18
2023-02-13T12:34:46.759Z,46.16
2023-02-13T12:35:46.738Z,44.32
2023-02-13T12:36:46.759Z,43.70
2023-02-13T12:37:46.720Z,43.15
2023-02-13T12:38:46.704Z,43.51
2023-02-13T12:39:46.687Z,46.09
2023-02-13T12:40:46.683Z,49.32
2023-02-13T12:41:46.680Z,51.07
2023-02-13T12:42:46.685Z,51.33
2023-02-13T12:43:46.637Z,49.87
2023-02-13T12:44:46.647Z,52.24
2023-02-13T12:45:46.641Z,49.95
2023-02-13T12:46:46.614Z,46.03
2023-02-13T12:47:46.585Z,45.72
2023-02-13T12:48:46.569Z,45.57
2023-02-13T12:49:46.561Z,46.37
2023-02-13T12:50:46.551Z,46.50
2023-02-13T12:51:46.560Z,45.97
2023-02-13T12:52:46.527Z,47.85